Terminal Aerodrome Forecast
Issued by NWS

Home | Current Version | Previous Version | Graphics & Text | Print | Product List | Glossary On
Versions: 1 2 3 4 5 6 7 8 9 10 11 12 13 14 15 16 17 18 19 20 21 22 23 24 25 26 27
000
FTUS43 KBIS 061739
TAFJMS
TAF
KJMS 061739Z 0618/0718 30038G47KT 1/4SM -SN BLSN OVC015
     FM062200 30033G44KT 1/2SM BLSN VCSH OVC010
     FM070300 30025G35KT 2SM BLSN BKN020 OVC050=

USA.gov is the U.S. government's official web portal to all federal, state and local government web resources and services.